createdAt,value
2017-05-16T00:01:50.318Z,2.90
2017-05-16T00:04:18.248Z,2.00
2017-05-16T00:06:47.499Z,3.48
2017-05-16T00:09:16.434Z,3.08
2017-05-16T00:11:45.482Z,4.54
2017-05-16T00:14:13.796Z,2.60
2017-05-16T00:16:42.753Z,5.50
2017-05-16T00:19:11.431Z,3.56
2017-05-16T00:21:39.359Z,2.72
2017-05-16T00:24:07.731Z,4.76
2017-05-16T00:26:36.028Z,5.52
2017-05-16T00:29:04.326Z,3.86
2017-05-16T00:31:33.518Z,3.30
2017-05-16T00:34:02.392Z,2.84
2017-05-16T00:36:31.434Z,4.10
2017-05-16T00:38:59.806Z,3.58
2017-05-16T00:41:27.750Z,6.94
2017-05-16T00:43:55.707Z,2.90
2017-05-16T00:46:24.100Z,3.56
2017-05-16T00:48:52.774Z,4.92
2017-05-16T00:51:21.067Z,4.34
2017-05-16T00:53:50.022Z,5.32
2017-05-16T00:56:18.906Z,4.38
2017-05-16T00:58:47.195Z,9.24
2017-05-16T01:01:15.191Z,5.54
2017-05-16T01:03:43.528Z,3.26
2017-05-16T01:06:11.835Z,5.60
2017-05-16T01:08:40.888Z,5.02
2017-05-16T01:11:09.184Z,7.16
2017-05-16T01:13:37.110Z,3.32
2017-05-16T01:16:05.822Z,5.14
2017-05-16T01:18:34.119Z,3.34
2017-05-16T01:21:02.423Z,8.50
2017-05-16T01:23:31.350Z,7.10
2017-05-16T01:25:59.664Z,9.06
2017-05-16T01:28:27.975Z,11.48
2017-05-16T01:30:55.955Z,11.38
2017-05-16T01:33:24.307Z,11.68
2017-05-16T01:35:52.239Z,12.24
2017-05-16T01:38:20.595Z,10.48
2017-05-16T01:40:48.899Z,12.80
2017-05-16T01:43:17.199Z,13.92
2017-05-16T01:45:45.574Z,18.32
2017-05-16T01:48:13.509Z,14.40
2017-05-16T01:50:41.806Z,15.00
2017-05-16T01:53:10.292Z,18.44
2017-05-16T01:55:39.179Z,14.54
2017-05-16T01:58:07.111Z,18.78
2017-05-16T02:00:35.471Z,15.22
2017-05-16T02:03:03.770Z,14.70
2017-05-16T02:05:32.067Z,15.32
2017-05-16T02:08:00.802Z,18.14
2017-05-16T02:10:29.714Z,20.28
2017-05-16T02:12:58.779Z,19.26
2017-05-16T02:15:27.127Z,17.76
2017-05-16T02:17:56.016Z,11.04
2017-05-16T02:20:24.695Z,13.38
2017-05-16T02:22:53.646Z,9.88
2017-05-16T02:25:22.319Z,12.96
2017-05-16T02:27:50.621Z,14.86
2017-05-16T02:30:19.778Z,12.44
2017-05-16T02:32:48.654Z,9.64
2017-05-16T02:35:16.594Z,11.40
2017-05-16T02:37:44.951Z,18.28
2017-05-16T02:40:13.635Z,13.40
2017-05-16T02:42:41.947Z,20.42
2017-05-16T02:45:11.558Z,18.76
2017-05-16T02:47:39.482Z,19.88
2017-05-16T02:50:07.411Z,14.30
2017-05-16T02:52:35.779Z,17.96
2017-05-16T02:55:04.083Z,15.12
2017-05-16T02:57:32.014Z,12.60
2017-05-16T03:00:01.181Z,17.46
2017-05-16T03:02:30.074Z,16.16
2017-05-16T03:04:58.761Z,17.02
2017-05-16T03:07:27.409Z,17.26
2017-05-16T03:09:56.318Z,14.88
2017-05-16T03:12:24.654Z,16.76
2017-05-16T03:14:52.650Z,10.60
2017-05-16T03:17:20.575Z,10.30
2017-05-16T03:19:48.870Z,17.60
2017-05-16T03:22:17.615Z,10.04
2017-05-16T03:24:45.944Z,9.64
2017-05-16T03:27:14.834Z,9.46
2017-05-16T03:29:43.195Z,13.82
2017-05-16T03:32:11.119Z,14.10
2017-05-16T03:34:39.414Z,11.70
2017-05-16T03:39:42.676Z,12.68
2017-05-16T03:42:11.793Z,14.60
2017-05-16T03:44:40.679Z,14.04
2017-05-16T03:47:08.616Z,12.88
2017-05-16T03:49:36.962Z,11.84
2017-05-16T03:52:05.834Z,7.16
2017-05-16T03:54:34.500Z,6.08
2017-05-16T03:57:02.654Z,7.46
2017-05-16T03:59:30.581Z,11.18
2017-05-16T04:01:58.900Z,6.26
2017-05-16T04:04:27.251Z,4.56
2017-05-16T04:06:55.578Z,8.28
2017-05-16T04:09:23.895Z,8.50
2017-05-16T04:11:52.243Z,5.80
2017-05-16T04:14:20.558Z,9.20
2017-05-16T04:16:49.438Z,11.20
2017-05-16T04:19:18.003Z,12.76
2017-05-16T04:21:45.939Z,14.16
2017-05-16T04:24:14.624Z,18.78
2017-05-16T04:26:42.976Z,18.50
2017-05-16T04:29:11.283Z,16.38
2017-05-16T04:31:39.950Z,20.70
2017-05-16T04:34:09.051Z,19.42
2017-05-16T04:36:37.351Z,13.84
2017-05-16T04:39:06.343Z,29.82
2017-05-16T04:41:34.716Z,16.84
2017-05-16T04:44:02.644Z,21.86
2017-05-16T04:46:31.315Z,23.54
2017-05-16T04:48:59.679Z,16.26
2017-05-16T04:51:27.983Z,17.10
2017-05-16T04:53:56.326Z,19.58
2017-05-16T04:56:25.102Z,14.68
2017-05-16T04:58:54.146Z,15.34
2017-05-16T05:01:22.456Z,17.06
2017-05-16T05:03:54.482Z,26.98
2017-05-16T05:06:22.778Z,18.98
2017-05-16T05:08:51.659Z,17.56
2017-05-16T05:11:20.751Z,17.46
2017-05-16T05:13:48.683Z,17.98
2017-05-16T05:16:17.568Z,18.38
2017-05-16T05:18:46.419Z,19.66
2017-05-16T05:21:14.346Z,15.74
2017-05-16T05:23:42.284Z,11.58
2017-05-16T05:26:10.631Z,10.34
2017-05-16T05:28:38.555Z,12.84
2017-05-16T05:31:06.480Z,22.76
2017-05-16T05:33:34.826Z,15.18
2017-05-16T05:36:03.486Z,15.16
2017-05-16T05:38:31.787Z,25.66
2017-05-16T05:41:01.083Z,20.90
2017-05-16T05:43:30.136Z,26.60
2017-05-16T05:45:58.449Z,19.72
2017-05-16T05:48:26.831Z,17.22
2017-05-16T05:50:55.742Z,22.30
2017-05-16T05:53:23.671Z,18.94
2017-05-16T05:55:52.028Z,20.48
2017-05-16T05:58:20.830Z,16.10
2017-05-16T06:00:49.128Z,13.70
2017-05-16T06:03:18.214Z,16.56
2017-05-16T06:05:46.152Z,18.54
2017-05-16T06:08:15.190Z,14.76
2017-05-16T06:10:44.171Z,16.14
2017-05-16T06:13:12.471Z,20.42
2017-05-16T06:15:41.511Z,16.92
2017-05-16T06:18:11.131Z,14.86
2017-05-16T06:20:40.014Z,16.74
2017-05-16T06:23:08.306Z,13.34
2017-05-16T06:25:37.390Z,15.22
2017-05-16T06:28:05.682Z,17.82
2017-05-16T06:30:33.983Z,17.82
2017-05-16T06:33:02.919Z,20.20
2017-05-16T06:35:31.581Z,16.84
2017-05-16T06:38:00.622Z,13.08
2017-05-16T06:40:29.009Z,20.74
2017-05-16T06:42:58.049Z,18.48
2017-05-16T06:45:26.012Z,16.40
2017-05-16T06:47:53.998Z,11.08
2017-05-16T06:50:22.674Z,14.22
2017-05-16T06:52:50.974Z,15.62
2017-05-16T06:55:19.343Z,31.16
2017-05-16T06:57:47.642Z,20.62
2017-05-16T07:00:15.958Z,19.26
2017-05-16T07:02:45.120Z,18.96
2017-05-16T07:05:13.802Z,21.62
2017-05-16T07:07:42.105Z,20.82
2017-05-16T07:10:10.462Z,14.24
2017-05-16T07:12:39.339Z,12.78
2017-05-16T07:15:08.007Z,14.48
2017-05-16T07:17:37.378Z,11.78
2017-05-16T07:20:06.807Z,11.34
2017-05-16T07:22:34.731Z,10.42
2017-05-16T07:25:03.819Z,12.70
2017-05-16T07:27:31.743Z,6.90
2017-05-16T07:30:00.049Z,6.02
2017-05-16T07:32:28.066Z,4.20
2017-05-16T07:34:57.112Z,4.06
2017-05-16T07:37:25.434Z,5.10
2017-05-16T07:39:54.520Z,4.88
2017-05-16T07:42:22.453Z,5.78
2017-05-16T07:44:51.490Z,10.38
2017-05-16T07:47:19.832Z,5.54
2017-05-16T07:49:48.127Z,4.94
2017-05-16T07:52:17.005Z,6.00
2017-05-16T07:54:45.755Z,4.84
2017-05-16T07:57:14.061Z,13.60
2017-05-16T07:59:42.945Z,5.46
2017-05-16T08:02:11.654Z,6.88
2017-05-16T08:04:39.578Z,4.28
2017-05-16T08:07:07.501Z,5.88
2017-05-16T08:09:35.890Z,5.60
2017-05-16T08:12:03.816Z,6.00
2017-05-16T08:14:32.487Z,4.54
2017-05-16T08:17:00.843Z,7.46
2017-05-16T08:19:29.138Z,5.02
2017-05-16T08:21:57.450Z,4.32
2017-05-16T08:24:25.800Z,4.56
2017-05-16T08:26:54.851Z,4.26
2017-05-16T08:29:22.792Z,6.68
2017-05-16T08:31:51.898Z,4.56
2017-05-16T08:34:20.198Z,9.06
2017-05-16T08:36:49.081Z,4.74
2017-05-16T08:39:17.163Z,7.16
2017-05-16T08:41:46.206Z,6.86
2017-05-16T08:44:14.519Z,6.50
2017-05-16T08:46:42.527Z,12.70
2017-05-16T08:49:10.823Z,5.38
2017-05-16T08:51:39.862Z,6.86
2017-05-16T08:54:08.571Z,4.68
2017-05-16T08:56:37.450Z,5.70
2017-05-16T08:59:06.122Z,5.84
2017-05-16T09:01:34.118Z,3.14
2017-05-16T09:04:02.042Z,3.60
2017-05-16T09:06:30.350Z,3.16
2017-05-16T09:08:58.722Z,7.18
2017-05-16T09:11:27.417Z,3.24
2017-05-16T09:13:56.309Z,3.84
2017-05-16T09:16:25.431Z,5.96
2017-05-16T09:18:53.738Z,7.68
2017-05-16T09:21:22.617Z,6.20
2017-05-16T09:23:51.474Z,4.36
2017-05-16T09:26:19.406Z,6.32
2017-05-16T09:28:49.643Z,3.50
2017-05-16T09:31:17.630Z,3.32
2017-05-16T09:33:45.943Z,3.08
2017-05-16T09:36:14.260Z,7.22
2017-05-16T09:38:43.213Z,4.08
2017-05-16T09:41:11.878Z,6.64
2017-05-16T09:43:39.810Z,4.40
2017-05-16T09:46:08.489Z,3.26
2017-05-16T09:48:36.415Z,8.06
2017-05-16T09:51:04.711Z,3.52
2017-05-16T09:53:33.663Z,5.50
2017-05-16T09:56:01.954Z,8.00
2017-05-16T09:58:30.841Z,7.84
2017-05-16T10:00:59.579Z,5.78
2017-05-16T10:03:27.894Z,5.04
2017-05-16T10:05:55.838Z,4.58
2017-05-16T10:08:25.136Z,5.16
2017-05-16T10:10:53.066Z,6.00
2017-05-16T10:13:21.368Z,7.24
2017-05-16T10:15:49.706Z,4.46
2017-05-16T10:18:17.635Z,5.88
2017-05-16T10:20:46.510Z,5.16
2017-05-16T10:23:16.609Z,4.50
2017-05-16T10:25:45.570Z,2.08
2017-05-16T10:28:13.872Z,3.46
2017-05-16T10:30:42.271Z,3.54
2017-05-16T10:33:10.567Z,8.24
2017-05-16T10:38:07.050Z,2.36
2017-05-16T10:40:35.346Z,3.64
2017-05-16T10:43:03.646Z,3.98
2017-05-16T10:45:31.630Z,2.20
2017-05-16T10:47:59.939Z,4.78
2017-05-16T10:50:28.983Z,2.56
2017-05-16T10:52:57.359Z,4.20
2017-05-16T10:55:25.294Z,2.88
2017-05-16T10:57:54.175Z,2.32
2017-05-16T11:00:23.113Z,4.94
2017-05-16T11:02:51.413Z,2.42
2017-05-16T11:05:19.712Z,2.84
2017-05-16T11:07:47.699Z,4.22
2017-05-16T11:10:16.001Z,2.46
2017-05-16T11:12:44.310Z,2.72
2017-05-16T11:15:12.530Z,3.10
2017-05-16T11:17:40.827Z,1.70
2017-05-16T11:20:08.751Z,2.18
2017-05-16T11:22:37.677Z,2.18
2017-05-16T11:25:06.551Z,3.00
2017-05-16T11:27:35.648Z,3.22
2017-05-16T11:30:03.990Z,3.64
2017-05-16T11:32:31.915Z,4.82
2017-05-16T11:35:00.972Z,2.92
2017-05-16T11:37:29.325Z,2.74
2017-05-16T11:39:57.261Z,4.22
2017-05-16T11:42:26.155Z,3.52
2017-05-16T11:44:55.154Z,3.10
2017-05-16T11:47:24.192Z,3.84
2017-05-16T11:49:52.490Z,4.26
2017-05-16T11:52:21.529Z,4.54
2017-05-16T11:54:50.198Z,2.06
2017-05-16T11:57:18.503Z,2.46
2017-05-16T11:59:47.451Z,1.70
2017-05-16T12:02:16.337Z,1.50
2017-05-16T12:04:45.007Z,3.48
2017-05-16T12:07:13.358Z,2.02
2017-05-16T12:09:41.654Z,3.88
2017-05-16T12:12:10.690Z,6.20
2017-05-16T12:14:39.626Z,1.40
2017-05-16T12:17:08.502Z,5.14
2017-05-16T12:19:37.166Z,1.74
2017-05-16T12:22:05.166Z,3.08
2017-05-16T12:24:33.476Z,2.88
2017-05-16T12:27:01.423Z,3.02
2017-05-16T12:29:29.651Z,4.94
2017-05-16T12:31:58.447Z,1.56
2017-05-16T12:34:27.341Z,1.64
2017-05-16T12:36:56.086Z,2.44
2017-05-16T12:39:24.394Z,3.14
2017-05-16T12:41:52.352Z,2.60
2017-05-16T12:44:20.694Z,1.16
2017-05-16T12:46:49.569Z,1.38
2017-05-16T12:49:18.233Z,2.10
2017-05-16T12:51:47.158Z,4.42
2017-05-16T12:54:15.473Z,1.48
2017-05-16T12:56:44.374Z,2.24
2017-05-16T12:59:13.111Z,1.70
2017-05-16T13:01:41.039Z,7.10
2017-05-16T13:04:09.706Z,2.80
2017-05-16T13:06:38.060Z,2.38
2017-05-16T13:09:06.952Z,1.84
2017-05-16T13:11:35.256Z,2.06
2017-05-16T13:14:04.038Z,4.34
2017-05-16T13:16:32.351Z,3.52
2017-05-16T13:19:00.673Z,2.28
2017-05-16T13:21:28.703Z,3.40
2017-05-16T13:23:57.595Z,3.02
2017-05-16T13:26:26.667Z,3.20
2017-05-16T13:28:55.447Z,3.60
2017-05-16T13:31:24.341Z,3.60
2017-05-16T13:33:52.275Z,1.18
2017-05-16T13:36:21.845Z,2.26
2017-05-16T13:38:50.507Z,2.50
2017-05-16T13:41:19.385Z,1.42
2017-05-16T13:43:47.366Z,1.36
2017-05-16T13:46:15.695Z,1.34
2017-05-16T13:48:44.595Z,3.86
2017-05-16T13:51:13.331Z,1.82
2017-05-16T13:53:41.266Z,2.30
2017-05-16T13:56:09.562Z,1.42
2017-05-16T13:58:37.566Z,4.54
2017-05-16T14:01:06.625Z,1.88
2017-05-16T14:03:34.914Z,1.30
2017-05-16T14:06:03.853Z,1.36
2017-05-16T14:08:32.896Z,2.68
2017-05-16T14:11:01.778Z,4.14
2017-05-16T14:13:30.131Z,1.44
2017-05-16T14:15:58.436Z,2.06
2017-05-16T14:18:26.367Z,5.34
2017-05-16T14:20:54.715Z,2.00
2017-05-16T14:23:22.641Z,2.64
2017-05-16T14:25:50.574Z,1.18
2017-05-16T14:28:18.935Z,1.36
2017-05-16T14:30:46.854Z,3.08
2017-05-16T14:33:15.166Z,0.98
2017-05-16T14:35:43.157Z,5.04
2017-05-16T14:38:11.467Z,1.40
2017-05-16T14:40:39.411Z,2.60
2017-05-16T14:43:07.758Z,1.14
2017-05-16T14:45:36.803Z,1.96
2017-05-16T14:48:05.689Z,2.14
2017-05-16T14:50:34.614Z,1.58
2017-05-16T14:53:02.538Z,1.42
2017-05-16T14:55:30.835Z,2.06
2017-05-16T14:57:59.210Z,1.56
2017-05-16T15:00:27.539Z,1.52
2017-05-16T15:02:56.232Z,4.06
2017-05-16T15:05:24.915Z,3.82
2017-05-16T15:07:53.223Z,2.60
2017-05-16T15:10:21.516Z,5.92
2017-05-16T15:12:50.438Z,3.18
2017-05-16T15:16:05.702Z,2.14
2017-05-16T15:18:34.071Z,2.36
2017-05-16T15:21:02.367Z,2.00
2017-05-16T15:23:30.308Z,1.42
2017-05-16T15:25:59.271Z,4.00
2017-05-16T15:28:27.999Z,3.06
2017-05-16T15:30:56.322Z,2.00
2017-05-16T15:33:25.289Z,2.92
2017-05-16T15:35:53.586Z,1.00
2017-05-16T15:38:21.878Z,1.48
2017-05-16T15:40:50.231Z,2.96
2017-05-16T15:43:18.160Z,1.40
2017-05-16T15:45:46.110Z,1.38
2017-05-16T15:48:15.219Z,3.64
2017-05-16T15:50:44.115Z,1.76
2017-05-16T15:53:12.791Z,1.64
2017-05-16T15:55:41.531Z,2.12
2017-05-16T15:58:09.830Z,1.84
2017-05-16T16:00:38.127Z,1.86
2017-05-16T16:03:07.211Z,1.72
2017-05-16T16:05:35.511Z,4.06
2017-05-16T16:08:03.802Z,1.60
2017-05-16T16:10:32.530Z,2.26
2017-05-16T16:13:01.427Z,2.28
2017-05-16T16:15:29.730Z,2.54
2017-05-16T16:17:57.709Z,2.88
2017-05-16T16:20:26.020Z,3.34
2017-05-16T16:22:55.523Z,2.58
2017-05-16T16:25:24.247Z,3.14
2017-05-16T16:27:52.174Z,2.28
2017-05-16T16:30:20.098Z,3.46
2017-05-16T16:32:48.759Z,5.56
2017-05-16T16:35:17.054Z,2.56
2017-05-16T16:37:45.952Z,4.18
2017-05-16T16:40:14.930Z,3.96
2017-05-16T16:42:42.862Z,1.32
2017-05-16T16:45:11.894Z,2.00
2017-05-16T16:47:40.254Z,2.30
2017-05-16T16:50:09.133Z,2.38
2017-05-16T16:52:37.799Z,1.44
2017-05-16T16:55:06.166Z,1.72
2017-05-16T16:57:34.468Z,1.50
2017-05-16T17:00:03.506Z,2.48
2017-05-16T17:02:31.891Z,2.70
2017-05-16T17:05:00.773Z,2.40
2017-05-16T17:07:29.661Z,4.60
2017-05-16T17:09:58.766Z,1.40
2017-05-16T17:12:27.671Z,2.62
2017-05-16T17:14:56.367Z,3.00
2017-05-16T17:17:25.308Z,11.96
2017-05-16T17:19:53.598Z,6.92
2017-05-16T17:22:22.479Z,1.52
2017-05-16T17:24:50.843Z,5.12
2017-05-16T17:27:19.134Z,1.66
2017-05-16T17:29:48.176Z,3.60
2017-05-16T17:32:17.111Z,2.60
2017-05-16T17:34:46.176Z,3.70
2017-05-16T17:37:14.115Z,1.38
2017-05-16T17:39:43.408Z,2.68
2017-05-16T17:42:11.332Z,4.92
2017-05-16T17:44:39.627Z,3.92
2017-05-16T17:47:07.634Z,4.92
2017-05-16T17:49:35.926Z,3.18
2017-05-16T17:52:03.842Z,3.42
2017-05-16T17:54:32.465Z,2.68
2017-05-16T17:57:01.388Z,3.02
2017-05-16T17:59:30.418Z,1.62
2017-05-16T18:01:59.356Z,3.94
2017-05-16T18:04:27.658Z,1.66
2017-05-16T18:06:56.552Z,1.86
2017-05-16T18:09:25.523Z,2.30
2017-05-16T18:11:53.823Z,4.92
2017-05-16T18:14:22.114Z,1.98
2017-05-16T18:16:51.048Z,2.14
2017-05-16T18:19:20.081Z,2.24
2017-05-16T18:21:48.954Z,1.72
2017-05-16T18:24:18.105Z,2.58
2017-05-16T18:26:46.766Z,3.34
2017-05-16T18:29:15.810Z,1.40
2017-05-16T18:31:44.754Z,7.28
2017-05-16T18:34:13.634Z,1.74
2017-05-16T18:36:42.675Z,2.30
2017-05-16T18:39:11.271Z,2.04
2017-05-16T18:41:40.142Z,2.06
2017-05-16T18:44:08.430Z,1.70
2017-05-16T18:46:36.416Z,2.02
2017-05-16T18:49:05.143Z,1.80
2017-05-16T18:51:34.019Z,1.86
2017-05-16T18:54:03.106Z,2.04
2017-05-16T18:56:32.143Z,1.76
2017-05-16T18:59:01.040Z,2.78
2017-05-16T19:01:29.035Z,4.40
2017-05-16T19:03:58.084Z,1.88
2017-05-16T19:06:27.461Z,2.58
2017-05-16T19:08:57.082Z,3.36
2017-05-16T19:11:26.124Z,3.44
2017-05-16T19:13:55.014Z,2.18
2017-05-16T19:16:23.945Z,3.06
2017-05-16T19:18:51.866Z,5.80
2017-05-16T19:21:19.794Z,3.16
2017-05-16T19:23:48.674Z,2.40
2017-05-16T19:26:16.983Z,2.36
2017-05-16T19:28:45.283Z,1.90
2017-05-16T19:31:13.638Z,2.62
2017-05-16T19:33:42.523Z,1.82
2017-05-16T19:36:11.183Z,2.48
2017-05-16T19:38:39.978Z,1.94
2017-05-16T19:41:08.854Z,2.46
2017-05-16T19:43:37.151Z,1.78
2017-05-16T19:46:05.129Z,2.90
2017-05-16T19:48:33.059Z,4.34
2017-05-16T19:51:01.363Z,2.90
2017-05-16T19:53:30.303Z,2.06
2017-05-16T19:55:59.351Z,2.98
2017-05-16T19:58:28.037Z,5.70
2017-05-16T20:00:56.499Z,2.96
2017-05-16T20:03:25.394Z,2.88
2017-05-16T20:05:54.290Z,2.56
2017-05-16T20:08:23.273Z,3.66
2017-05-16T20:10:51.202Z,3.12
2017-05-16T20:13:19.497Z,2.08
2017-05-16T20:15:47.883Z,2.44
2017-05-16T20:18:16.754Z,2.76
2017-05-16T20:20:45.067Z,3.36
2017-05-16T20:23:13.799Z,5.26
2017-05-16T20:25:41.722Z,3.90
2017-05-16T20:28:10.014Z,4.40
2017-05-16T20:30:39.286Z,2.36
2017-05-16T20:33:08.165Z,7.78
2017-05-16T20:35:36.454Z,2.10
2017-05-16T20:38:05.556Z,2.60
2017-05-16T20:40:33.484Z,3.30
2017-05-16T20:43:02.519Z,3.42
2017-05-16T20:45:30.889Z,1.80
2017-05-16T20:47:59.774Z,2.28
2017-05-16T20:50:28.451Z,3.76
2017-05-16T20:52:56.427Z,4.46
2017-05-16T20:55:25.996Z,4.60
2017-05-16T20:57:55.568Z,1.92
2017-05-16T21:00:25.461Z,3.58
2017-05-16T21:02:53.779Z,2.62
2017-05-16T21:05:22.653Z,2.74
2017-05-16T21:07:50.991Z,3.24
2017-05-16T21:10:19.863Z,2.74
2017-05-16T21:12:48.155Z,2.50
2017-05-16T21:15:17.494Z,2.06
2017-05-16T21:17:46.376Z,3.18
2017-05-16T21:20:14.691Z,2.60
2017-05-16T21:22:44.056Z,3.46
2017-05-16T21:25:12.359Z,2.42
2017-05-16T21:27:41.247Z,2.62
2017-05-16T21:30:09.974Z,3.32
2017-05-16T21:32:37.902Z,2.88
2017-05-16T21:35:06.948Z,3.94
2017-05-16T21:37:35.316Z,2.22
2017-05-16T21:40:04.197Z,4.80
2017-05-16T21:42:32.866Z,3.10
2017-05-16T21:45:02.582Z,2.66
2017-05-16T21:47:31.257Z,2.66
2017-05-16T21:50:00.157Z,4.86
2017-05-16T21:52:28.995Z,2.68
2017-05-16T21:54:56.939Z,3.00
2017-05-16T21:57:25.249Z,5.90
2017-05-16T21:59:54.082Z,2.42
2017-05-16T22:02:22.974Z,2.86
2017-05-16T22:04:50.899Z,3.36
2017-05-16T22:07:19.251Z,3.52
2017-05-16T22:09:47.552Z,3.04
2017-05-16T22:12:15.486Z,3.18
2017-05-16T22:14:44.220Z,3.08
2017-05-16T22:17:12.521Z,3.82
2017-05-16T22:19:40.446Z,3.10
2017-05-16T22:22:08.799Z,3.46
2017-05-16T22:24:36.719Z,2.72
2017-05-16T22:27:05.595Z,4.86
2017-05-16T22:29:34.306Z,4.00
2017-05-16T22:32:02.596Z,3.62
2017-05-16T22:34:30.915Z,4.48
2017-05-16T22:36:59.169Z,3.30
2017-05-16T22:39:27.507Z,6.06
2017-05-16T22:41:56.419Z,3.34
2017-05-16T22:44:25.495Z,5.58
2017-05-16T22:46:53.800Z,7.06
2017-05-16T22:49:22.102Z,9.48
2017-05-16T22:51:50.451Z,4.52
2017-05-16T22:54:19.491Z,7.34
2017-05-16T22:56:47.786Z,3.86
2017-05-16T22:59:17.099Z,5.30
2017-05-16T23:01:46.163Z,5.70
2017-05-16T23:04:15.219Z,5.40
2017-05-16T23:06:44.382Z,4.02
2017-05-16T23:09:13.051Z,4.72
2017-05-16T23:11:41.347Z,5.50
2017-05-16T23:14:10.458Z,3.66
2017-05-16T23:16:38.383Z,3.56
2017-05-16T23:19:07.265Z,3.86
2017-05-16T23:21:36.199Z,4.18
2017-05-16T23:24:04.871Z,3.80
2017-05-16T23:26:33.167Z,8.26
2017-05-16T23:29:01.735Z,4.70
2017-05-16T23:31:30.626Z,8.14
2017-05-16T23:33:59.327Z,11.74
2017-05-16T23:36:27.691Z,6.38
2017-05-16T23:38:55.643Z,13.46
2017-05-16T23:41:23.578Z,5.68
2017-05-16T23:43:52.315Z,7.28
2017-05-16T23:46:20.606Z,7.78
2017-05-16T23:48:48.542Z,8.42
2017-05-16T23:51:17.670Z,7.22
2017-05-16T23:53:45.980Z,12.52
2017-05-16T23:56:14.874Z,9.48
2017-05-16T23:58:43.605Z,11.86
